Time;durP1;ratioP1;P1;durP2;ratioP2;P2;SDS_P1;SDS_P2;PMS_P1;PMS_P2;Temp;Humidity;BMP_temperature;BMP_pressure;BME280_temperature;BME280_humidity;BME280_pressure;Samples;Min_cycle;Max_cycle;Signal;HPM_P1;HPM_P2
2021/04/04 00:00:24;;;;;;;19.37;7.25;;;;;;;-0.30;74.73;99780.63;1769731;80;21150;-74
2021/04/04 00:02:52;;;;;;;24.43;8.95;;;;;;;-0.27;74.83;99778.03;1782657;80;21403;-73
2021/04/04 00:05:20;;;;;;;26.25;10.10;;;;;;;-0.23;75.27;99778.47;1767460;80;21193;-73
2021/04/04 00:07:50;;;;;;;27.22;11.18;;;;;;;-0.20;74.99;99772.87;1751496;81;21177;-76
2021/04/04 00:10:21;;;;;;;28.77;10.60;;;;;;;-0.18;74.71;99776.30;1751719;81;21204;-75
2021/04/04 00:12:50;;;;;;;23.67;9.58;;;;;;;-0.15;75.46;99774.58;1760039;79;21617;-76
2021/04/04 00:15:18;;;;;;;28.77;10.30;;;;;;;-0.11;75.32;99778.05;1759455;81;22287;-73
2021/04/04 00:17:47;;;;;;;27.75;11.25;;;;;;;-0.09;75.35;99782.77;1759400;81;21165;-68
2021/04/04 00:20:17;;;;;;;30.00;11.63;;;;;;;-0.08;74.82;99781.92;1763081;80;21178;-71
2021/04/04 00:22:46;;;;;;;30.35;11.12;;;;;;;-0.08;74.71;99783.22;1775599;80;21578;-71
2021/04/04 00:25:15;;;;;;;27.15;9.10;;;;;;;-0.06;75.07;99782.79;1775493;80;21198;-71
2021/04/04 00:27:43;;;;;;;26.33;10.23;;;;;;;-0.03;74.78;99785.38;1778827;79;22065;-75
2021/04/04 00:30:17;;;;;;;29.90;11.35;;;;;;;-0.02;74.63;99788.41;1758692;80;21529;-74
2021/04/04 00:32:45;;;;;;;25.88;9.23;;;;;;;-0.03;74.23;99786.66;1758731;81;21145;-76
2021/04/04 00:35:16;;;;;;;27.32;11.12;;;;;;;-0.02;74.14;99783.23;1767590;80;21176;-76
2021/04/04 00:37:45;;;;;;;27.00;11.12;;;;;;;0.00;74.52;99785.39;1750253;82;21085;-75
2021/04/04 00:40:25;;;;;;;28.70;11.22;;;;;;;0.01;74.40;99787.55;1750131;82;21367;-78
2021/04/04 00:42:53;;;;;;;24.98;10.18;;;;;;;0.01;74.78;99787.55;1812577;77;21487;-73
2021/04/04 00:45:36;;;;;;;28.40;11.65;;;;;;;0.04;75.24;99788.39;1820624;78;21114;-73
2021/04/04 00:48:05;;;;;;;32.63;11.80;;;;;;;0.07;75.17;99794.89;1819542;78;21621;-73
2021/04/04 00:50:37;;;;;;;26.60;10.78;;;;;;;0.09;75.12;99791.88;1820598;78;21059;-74
2021/04/04 00:53:05;;;;;;;28.40;11.50;;;;;;;0.09;75.13;99786.69;1820552;78;21455;-75
2021/04/04 00:55:34;;;;;;;26.12;11.03;;;;;;;0.12;74.87;99787.97;1820554;78;21111;-75
2021/04/04 00:58:04;;;;;;;24.72;10.20;;;;;;;0.14;74.53;99794.45;1810584;77;21099;-71
2021/04/04 01:00:33;;;;;;;27.87;11.20;;;;;;;0.16;74.99;99788.81;1789888;78;21562;-72
2021/04/04 01:03:01;;;;;;;25.68;10.13;;;;;;;0.16;74.73;99793.59;1788906;80;21078;-70
2021/04/04 01:05:37;;;;;;;24.45;9.23;;;;;;;0.16;74.51;99792.30;1793322;80;21287;-72
2021/04/04 01:08:05;;;;;;;25.25;11.22;;;;;;;0.16;75.17;99796.18;1793297;78;21102;-71
2021/04/04 01:10:37;;;;;;;22.70;9.45;;;;;;;0.19;75.11;99797.46;1793520;78;21538;-71
2021/04/04 01:13:24;;;;;;;26.90;10.28;;;;;;;0.18;74.99;99800.94;1809450;78;21187;-72
2021/04/04 01:16:04;;;;;;;24.67;11.38;;;;;;;0.18;75.63;99800.94;1785329;80;21541;-73
2021/04/04 01:18:54;;;;;;;28.02;10.68;;;;;;;0.18;75.46;99811.29;1781489;78;21374;-72
2021/04/04 01:21:41;;;;;;;25.17;10.32;;;;;;;0.15;74.96;99817.74;1785780;80;21083;-73
2021/04/04 01:24:32;;;;;;;20.75;8.28;;;;;;;0.12;74.62;99815.60;1785812;80;21640;-73
2021/04/04 01:27:07;;;;;;;;;;;;;;;0.05;74.60;99818.62;1832414;76;21100;-71
2021/04/04 01:29:36;;;;;;;27.52;10.45;;;;;;;0.04;75.48;99822.48;1825928;77;20245;-73
2021/04/04 01:34:57;;;;;;;28.00;11.10;;;;;;;0.01;75.36;99824.65;1774957;79;22507;-72
2021/04/04 01:37:26;;;;;;;25.92;12.03;;;;;;;-0.04;75.56;99828.97;1749467;82;21167;-71
2021/04/04 01:39:56;;;;;;;27.32;12.55;;;;;;;-0.05;75.44;99827.22;1725426;82;21390;-70
2021/04/04 01:42:24;;;;;;;29.15;13.38;;;;;;;-0.05;75.43;99831.10;1711462;80;21220;-70
2021/04/04 01:44:52;;;;;;;30.50;12.80;;;;;;;-0.08;75.47;99824.64;1663548;85;21212;-72
2021/04/04 01:47:21;;;;;;;29.98;11.90;;;;;;;-0.10;75.63;99822.03;1659316;86;21244;-72
2021/04/04 01:49:51;;;;;;;27.20;11.28;;;;;;;-0.28;76.02;99792.25;1710401;83;21151;-74
2021/04/04 01:52:19;;;;;;;38.93;15.80;;;;;;;-0.08;76.23;99815.58;1678416;85;21386;-73
2021/04/04 01:54:47;;;;;;;56.02;20.27;;;;;;;-0.02;76.39;99823.36;1639940;86;21204;-73
2021/04/04 01:57:16;;;;;;;72.80;26.65;;;;;;;0.04;76.38;99827.23;1700991;79;21158;-71
2021/04/04 01:59:45;;;;;;;43.17;18.70;;;;;;;0.08;76.30;99821.20;1749639;81;21232;-70
2021/04/04 02:02:13;;;;;;;35.55;15.30;;;;;;;0.13;76.33;99819.91;1704322;84;21211;-70
2021/04/04 02:04:42;;;;;;;28.70;14.15;;;;;;;0.18;76.31;99824.64;1701131;82;21206;-69
2021/04/04 02:07:14;;;;;;;35.25;15.60;;;;;;;0.26;76.30;99824.67;1672390;85;21187;-69
2021/04/04 02:09:44;;;;;;;34.18;14.15;;;;;;;0.33;76.65;99825.09;1672704;85;21218;-68
2021/04/04 02:12:13;;;;;;;27.73;11.28;;;;;;;0.39;76.57;99834.14;1667010;81;21235;-72
2021/04/04 02:14:44;;;;;;;29.70;12.90;;;;;;;0.44;76.29;99835.02;1646104;86;21207;-71
2021/04/04 02:17:11;;;;;;;32.60;14.13;;;;;;;0.47;76.33;99835.01;1662978;85;21379;-71
2021/04/04 02:19:40;;;;;;;28.65;11.83;;;;;;;0.48;76.09;99835.42;1696853;84;21205;-70
2021/04/04 02:22:08;;;;;;;28.07;11.25;;;;;;;0.51;76.41;99834.15;1696584;84;21159;-72
2021/04/04 02:24:36;;;;;;;27.37;12.93;;;;;;;0.54;76.67;99832.84;1672007;81;21249;-71
2021/04/04 02:27:05;;;;;;;38.65;15.43;;;;;;;0.61;76.98;99831.97;1566028;89;21788;-72
2021/04/04 02:29:33;;;;;;;42.13;18.23;;;;;;;0.64;76.68;99831.09;1609701;89;21500;-72
2021/04/04 02:32:02;;;;;;;44.95;19.50;;;;;;;0.68;76.62;99828.08;1610175;89;21746;-72
2021/04/04 02:34:35;;;;;;;31.50;12.43;;;;;;;0.69;76.49;99825.91;1610253;89;27104;-70
2021/04/04 02:37:06;;;;;;;40.25;14.85;;;;;;;0.71;76.44;99827.62;1583196;89;21194;-70
2021/04/04 02:39:50;;;;;;;37.88;14.63;;;;;;;0.74;76.75;99834.55;1623332;81;21043;-74
2021/04/04 02:42:22;;;;;;;34.10;12.95;;;;;;;0.79;76.94;99828.92;1747588;80;21187;-74
2021/04/04 02:44:52;;;;;;;30.52;13.75;;;;;;;0.84;76.55;99824.58;1750577;81;21175;-75
2021/04/04 02:47:34;;;;;;;35.55;14.35;;;;;;;0.85;76.10;99822.41;1745057;82;21175;-72
2021/04/04 02:50:03;;;;;;;30.30;13.15;;;;;;;0.86;75.85;99820.27;1749736;80;21688;-72
2021/04/04 02:52:32;;;;;;;35.90;15.00;;;;;;;0.87;76.06;99825.00;1729709;82;21174;-73
2021/04/04 02:55:00;;;;;;;27.50;12.50;;;;;;;0.89;75.91;99822.83;1717644;77;21400;-72
2021/04/04 02:57:29;;;;;;;28.75;12.90;;;;;;;0.91;75.81;99823.70;1707634;83;21226;-71
2021/04/04 03:00:01;;;;;;;26.57;13.03;;;;;;;0.90;75.82;99822.39;1724669;81;21195;-71
2021/04/04 03:02:29;;;;;;;24.47;11.78;;;;;;;0.88;75.84;99815.94;1721325;83;21207;-72
2021/04/04 03:05:00;;;;;;;27.55;11.93;;;;;;;0.91;76.01;99821.10;1721303;83;21187;-72
2021/04/04 03:07:28;;;;;;;26.27;11.75;;;;;;;0.95;76.20;99822.83;1699216;83;22209;-71
2021/04/04 03:09:57;;;;;;;29.23;13.32;;;;;;;1.00;76.63;99822.38;1726083;80;21183;-71
2021/04/04 03:12:26;;;;;;;29.75;13.40;;;;;;;1.06;76.75;99820.21;1722338;82;21185;-73
2021/04/04 03:14:57;;;;;;;32.45;13.85;;;;;;;1.12;76.42;99827.09;1717293;82;21653;-72
2021/04/04 03:17:25;;;;;;;27.40;12.28;;;;;;;1.17;75.99;99823.60;1725959;82;21218;-74
2021/04/04 03:19:55;;;;;;;29.30;12.65;;;;;;;1.21;75.82;99824.47;1726059;82;21672;-73
2021/04/04 03:22:23;;;;;;;24.60;12.45;;;;;;;1.24;75.44;99830.93;1729041;82;21250;-71
2021/04/04 03:24:51;;;;;;;27.82;12.23;;;;;;;1.25;75.75;99826.19;1715763;80;21570;-70
2021/04/04 03:27:19;;;;;;;29.77;11.93;;;;;;;1.25;75.79;99822.30;1695782;83;21216;-71
2021/04/04 03:29:47;;;;;;;34.25;13.30;;;;;;;1.27;75.92;99824.45;1715061;83;21153;-72
2021/04/04 03:32:18;;;;;;;26.23;12.88;;;;;;;1.32;76.02;99829.18;1714793;83;21395;-71
2021/04/04 03:34:47;;;;;;;28.87;12.82;;;;;;;1.31;75.82;99827.47;1715001;83;21321;-71
2021/04/04 03:37:15;;;;;;;44.23;18.92;;;;;;;1.30;75.65;99821.83;1714884;83;21220;-68
2021/04/04 03:39:44;;;;;;;26.62;12.82;;;;;;;1.29;75.51;99824.02;1712743;79;21179;-73
2021/04/04 03:42:13;;;;;;;23.57;12.10;;;;;;;1.23;75.51;99826.19;1631731;85;21246;-75
2021/04/04 03:44:41;;;;;;;27.00;12.73;;;;;;;1.21;75.44;99821.43;1639559;87;21409;-73
2021/04/04 03:47:11;;;;;;;27.82;14.07;;;;;;;1.18;75.57;99818.00;1642363;85;21237;-73
2021/04/04 03:49:40;;;;;;;23.62;12.23;;;;;;;1.13;75.75;99820.61;1662211;85;21228;-74
2021/04/04 03:52:08;;;;;;;25.55;12.63;;;;;;;1.10;75.93;99817.16;1628642;88;21231;-74
2021/04/04 03:54:41;;;;;;;28.67;12.82;;;;;;;1.04;75.85;99816.31;1631128;87;21210;-73
2021/04/04 03:57:09;;;;;;;32.15;15.32;;;;;;;1.04;75.77;99821.95;1638478;86;22098;-71
2021/04/04 03:59:39;;;;;;;32.50;15.23;;;;;;;1.01;75.80;99818.93;1683068;84;21203;-70
2021/04/04 04:02:07;;;;;;;29.18;12.98;;;;;;;1.02;75.91;99821.94;1682810;85;21207;-71
2021/04/04 04:04:36;;;;;;;26.95;12.15;;;;;;;1.05;75.84;99819.33;1668561;85;21144;-71
2021/04/04 04:07:06;;;;;;;26.57;10.88;;;;;;;1.09;75.82;99827.97;1681246;85;21215;-70
2021/04/04 04:09:34;;;;;;;27.50;11.05;;;;;;;1.13;75.68;99832.28;1681385;85;21227;-69
2021/04/04 04:12:03;;;;;;;22.42;10.90;;;;;;;1.17;75.95;99835.72;1681123;85;21717;-70
2021/04/04 04:14:31;;;;;;;25.20;10.00;;;;;;;1.22;75.63;99837.44;1681372;85;21165;-69
2021/04/04 04:17:02;;;;;;;20.40;9.75;;;;;;;1.31;75.97;99840.44;1661901;85;21205;-70
2021/04/04 04:19:30;;;;;;;17.32;8.95;;;;;;;1.39;76.46;99841.70;1681640;85;21255;-71
2021/04/04 04:21:59;;;;;;;17.15;8.30;;;;;;;1.47;76.67;99847.70;1681271;85;22046;-70
2021/04/04 04:24:27;;;;;;;16.70;8.48;;;;;;;1.54;76.83;99851.13;1681265;85;21215;-70
2021/04/04 04:26:57;;;;;;;18.15;7.72;;;;;;;1.61;77.11;99859.31;1680642;83;21211;-68
2021/04/04 04:29:25;;;;;;;16.65;8.08;;;;;;;1.72;77.41;99869.20;1677257;83;21212;-67
2021/04/04 04:31:56;;;;;;;20.75;8.98;;;;;;;1.82;77.63;99870.91;1676839;85;21212;-67
2021/04/04 04:34:24;;;;;;;;;;;;;;;1.93;77.33;99870.81;1681199;81;21390;-74
2021/04/04 04:36:52;;;;;;;19.15;8.88;;;;;;;2.01;76.51;99866.89;1651173;85;20275;-75
2021/04/04 04:39:21;;;;;;;20.43;9.98;;;;;;;2.09;76.18;99867.69;1656767;86;21657;-77
2021/04/04 04:41:51;;;;;;;18.92;8.38;;;;;;;2.17;75.52;99870.25;1653932;86;21175;-76
2021/04/04 04:44:24;;;;;;;20.60;9.75;;;;;;;2.20;75.16;99867.62;1655353;86;21207;-75
2021/04/04 04:46:52;;;;;;;22.10;9.80;;;;;;;2.26;75.32;99871.48;1653212;86;21237;-80
2021/04/04 04:49:28;;;;;;;16.05;8.53;;;;;;;2.33;75.39;99873.61;1656812;85;21262;-79
2021/04/04 04:51:56;;;;;;;15.95;8.00;;;;;;;2.39;75.60;99872.23;1683714;85;21168;-70
2021/04/04 04:54:24;;;;;;;24.50;11.57;;;;;;;2.45;76.06;99873.50;1683459;85;21233;-68
2021/04/04 04:56:53;;;;;;;23.92;12.10;;;;;;;2.54;76.03;99871.27;1684348;85;21143;-67
2021/04/04 04:59:21;;;;;;;22.95;10.63;;;;;;;2.62;75.87;99884.64;1683983;85;21396;-71
2021/04/04 05:01:50;;;;;;;23.32;10.43;;;;;;;2.65;75.55;99879.40;1672655;85;21179;-73
2021/04/04 05:04:31;;;;;;;29.18;12.75;;;;;;;2.70;75.05;99881.52;1680886;84;21251;-71
2021/04/04 05:07:06;;;;;;;29.10;12.10;;;;;;;2.75;74.32;99880.62;1668296;84;21200;-78
2021/04/04 05:09:33;;;;;;;31.95;13.00;;;;;;;2.79;73.80;99874.08;1682828;85;21668;-77
2021/04/04 05:12:03;;;;;;;26.65;10.45;;;;;;;2.84;73.35;99885.73;1682797;85;22374;-78
2021/04/04 05:14:31;;;;;;;17.70;8.08;;;;;;;2.88;73.35;99888.73;1663399;84;21227;-80
2021/04/04 05:17:00;;;;;;;14.30;7.28;;;;;;;2.94;72.93;99888.66;1703289;84;21172;-75
2021/04/04 05:19:35;;;;;;;13.93;7.50;;;;;;;3.02;72.43;99881.65;1684560;84;21236;-78
2021/04/04 05:22:07;;;;;;;17.27;6.92;;;;;;;3.02;72.43;99881.65;1645466;86;21237;-70
2021/04/04 05:24:38;;;;;;;12.28;6.72;;;;;;;3.07;72.20;99894.16;1637602;86;21457;-70
2021/04/04 05:27:07;;;;;;;11.38;5.62;;;;;;;3.15;72.09;99887.16;1644464;86;26717;-70
2021/04/04 05:29:35;;;;;;;12.07;6.45;;;;;;;3.21;71.92;99888.81;1679828;84;21296;-71
2021/04/04 05:32:05;;;;;;;12.50;6.67;;;;;;;3.28;71.90;99890.91;1684088;85;21227;-71
2021/04/04 05:34:40;;;;;;;15.68;6.70;;;;;;;3.33;71.80;99893.02;1664688;81;21260;-71
2021/04/04 05:37:11;;;;;;;14.30;6.85;;;;;;;3.43;71.73;99892.05;1600962;87;21254;-77
2021/04/04 05:39:40;;;;;;;10.20;6.37;;;;;;;3.63;71.29;99890.48;1648892;86;21210;-77
2021/04/04 05:42:11;;;;;;;10.93;6.58;;;;;;;3.63;71.29;99890.48;1603384;89;21738;-78
2021/04/04 05:45:05;;;;;;;12.85;7.00;;;;;;;3.87;71.05;99890.62;1652928;84;24779;-76
2021/04/04 05:47:52;;;;;;;12.60;7.22;;;;;;;4.04;70.61;99889.08;1626437;86;21190;-77
2021/04/04 05:50:45;;;;;;;15.03;7.20;;;;;;;4.04;70.61;99889.08;1651492;81;21653;-71
2021/04/04 05:53:43;;;;;;;13.13;6.62;;;;;;;4.20;70.51;99888.41;1769034;81;21194;-73
2021/04/04 05:56:56;;;;;;;10.73;5.90;;;;;;;4.33;71.43;99895.17;1739360;82;21268;-71
2021/04/04 05:59:38;;;;;;;10.30;5.53;;;;;;;4.48;69.76;99891.91;1703678;82;21209;-70
2021/04/04 06:06:04;;;;;;;8.38;5.47;;;;;;;4.76;69.85;99889.27;1715399;78;78898;-85
2021/04/04 06:08:47;;;;;;;14.38;4.87;;;;;;;4.92;69.08;99890.29;1692884;83;22000;-84
2021/04/04 06:11:40;;;;;;;9.65;4.90;;;;;;;5.09;69.14;99893.47;1723071;81;21142;-85
2021/04/04 06:14:20;;;;;;;9.75;4.53;;;;;;;5.23;68.92;99904.51;1724581;83;21143;-84
2021/04/04 06:17:09;;;;;;;;;;;;;;;5.34;68.22;99899.55;1719590;83;21206;-84
2021/04/04 06:19:52;;;;;;;9.03;4.78;;;;;;;5.44;67.67;99895.84;1753350;78;20282;-72
2021/04/04 06:22:55;;;;;;;;;;;;;;;5.48;67.01;99888.38;1759979;80;21214;-71
2021/04/04 06:25:59;;;;;;;8.98;4.80;;;;;;;5.61;66.71;99893.77;1719380;81;20274;-71
2021/04/04 06:29:05;;;;;;;14.47;5.53;;;;;;;5.67;66.26;99892.31;1772325;79;21158;-71
2021/04/04 06:31:41;;;;;;;9.50;4.87;;;;;;;5.66;65.35;99891.92;1764328;80;21607;-71
2021/04/04 06:34:16;;;;;;;7.47;3.85;;;;;;;5.67;65.41;99901.46;1765775;79;21425;-76
2021/04/04 06:36:55;;;;;;;6.45;3.27;;;;;;;5.74;65.73;99903.95;1821962;78;21435;-77
2021/04/04 06:39:57;;;;;;;7.12;3.30;;;;;;;5.78;65.84;99905.62;1788260;78;21176;-74
2021/04/04 06:42:49;;;;;;;8.23;3.65;;;;;;;5.80;65.15;99912.53;1806541;78;21188;-77
2021/04/04 06:45:32;;;;;;;4.50;3.22;;;;;;;5.89;65.94;99909.72;1795335;79;21189;-76
2021/04/04 06:48:25;;;;;;;8.40;3.80;;;;;;;6.03;65.26;99912.07;1804648;78;21181;-75
2021/04/04 06:50:57;;;;;;;10.80;3.98;;;;;;;6.17;65.17;99913.53;1771193;78;21343;-70
2021/04/04 06:53:50;;;;;;;7.92;3.75;;;;;;;6.27;63.95;99917.64;1752610;81;21184;-70
2021/04/04 06:56:46;;;;;;;5.87;3.80;;;;;;;6.34;64.26;99919.22;1743384;81;21180;-70
2021/04/04 06:59:23;;;;;;;7.03;3.58;;;;;;;6.43;63.49;99916.84;1783418;80;21164;-69
2021/04/04 07:02:08;;;;;;;8.50;4.08;;;;;;;6.47;62.31;99924.58;1757881;80;21159;-71
2021/04/04 07:04:51;;;;;;;5.75;3.50;;;;;;;6.48;62.66;99922.36;1725320;79;21438;-79
2021/04/04 07:07:53;;;;;;;12.60;3.92;;;;;;;6.51;62.79;99921.00;1682395;83;21723;-78
2021/04/04 07:10:48;;;;;;;13.30;3.65;;;;;;;6.57;63.56;99925.67;1686403;83;21396;-77
2021/04/04 07:13:24;;;;;;;6.97;3.35;;;;;;;6.63;62.42;99932.08;1750582;80;22348;-77
2021/04/04 07:16:32;;;;;;;8.13;3.77;;;;;;;6.67;61.92;99935.01;1741479;81;21930;-76
2021/04/04 07:19:40;;;;;;;7.65;4.05;;;;;;;6.73;62.28;99936.17;1755138;80;21245;-70
2021/04/04 07:22:54;;;;;;;9.70;4.20;;;;;;;6.85;61.67;99935.86;1711231;81;21167;-69
2021/04/04 07:25:42;;;;;;;6.00;3.55;;;;;;;7.08;61.16;99939.67;1737769;81;21134;-70
2021/04/04 07:28:56;;;;;;;6.35;3.83;;;;;;;7.38;60.76;99936.69;1724964;80;21207;-69
2021/04/04 07:31:41;;;;;;;7.83;4.42;;;;;;;7.64;61.30;99934.67;1732446;81;21170;-70
2021/04/04 07:34:26;;;;;;;6.47;3.62;;;;;;;8.01;60.44;99937.55;1742721;76;21464;-80
2021/04/04 07:37:28;;;;;;;9.73;3.85;;;;;;;8.26;58.87;99935.05;1830073;77;21217;-79
2021/04/04 07:40:19;;;;;;;8.70;3.75;;;;;;;8.45;58.77;99935.36;1832714;77;21606;-79
2021/04/04 07:43:03;;;;;;;8.38;4.12;;;;;;;8.79;59.54;99935.61;1852320;77;21209;-77
2021/04/04 07:45:45;;;;;;;4.65;3.20;;;;;;;9.01;56.03;99937.90;1839606;77;21165;-78
2021/04/04 07:48:26;;;;;;;7.15;3.90;;;;;;;9.25;54.40;99934.05;1831952;76;21375;-77
2021/04/04 07:51:14;;;;;;;6.10;3.47;;;;;;;9.52;52.85;99931.34;1775857;76;21233;-69
2021/04/04 07:54:08;;;;;;;7.58;3.52;;;;;;;9.63;53.40;99933.98;1746838;80;21665;-70
2021/04/04 07:56:51;;;;;;;6.20;3.65;;;;;;;9.76;53.44;99938.36;1751147;81;21182;-70
2021/04/04 07:59:47;;;;;;;12.53;4.55;;;;;;;9.80;54.88;99930.77;1733646;80;21193;-70
2021/04/04 08:02:29;;;;;;;7.15;4.33;;;;;;;9.75;55.03;99932.67;1741245;80;21233;-70
2021/04/04 08:05:07;;;;;;;8.60;3.90;;;;;;;9.57;54.69;99939.48;1743821;77;21180;-77
2021/04/04 08:07:59;;;;;;;6.17;4.08;;;;;;;9.55;55.56;99940.46;1757927;80;21777;-78
2021/04/04 08:10:35;;;;;;;7.30;3.83;;;;;;;9.65;55.62;99944.46;1756603;80;21705;-77
2021/04/04 08:13:38;;;;;;;8.00;4.10;;;;;;;9.71;56.05;99939.42;1776239;80;21239;-76
2021/04/04 08:16:42;;;;;;;7.15;4.30;;;;;;;9.74;54.31;99942.81;1755640;80;21261;-77
2021/04/04 08:19:11;;;;;;;7.80;4.00;;;;;;;9.61;53.41;99941.07;1752776;80;21275;-71
2021/04/04 08:21:53;;;;;;;7.70;4.70;;;;;;;9.47;55.95;99942.03;1696600;82;21194;-71
2021/04/04 08:24:27;;;;;;;9.98;3.95;;;;;;;9.50;54.44;99944.57;1708428;82;21179;-70
2021/04/04 08:27:09;;;;;;;6.85;4.45;;;;;;;9.35;56.06;99939.37;1715205;83;21206;-71
2021/04/04 08:29:45;;;;;;;9.58;4.25;;;;;;;9.37;53.72;99940.19;1715241;83;21195;-71
2021/04/04 08:32:18;;;;;;;7.72;3.75;;;;;;;9.29;54.20;99938.27;1698141;83;21185;-70
2021/04/04 08:34:54;;;;;;;17.70;5.00;;;;;;;9.36;54.38;99933.23;1694011;78;21214;-77
2021/04/04 08:37:38;;;;;;;8.40;4.10;;;;;;;9.60;54.17;99934.58;1688741;84;21218;-77
2021/04/04 08:40:13;;;;;;;8.80;3.75;;;;;;;9.87;53.47;99929.62;1687941;83;21748;-78
2021/04/04 08:42:44;;;;;;;6.65;3.72;;;;;;;9.99;53.34;99930.08;1688521;84;21379;-77
2021/04/04 08:45:26;;;;;;;5.45;3.65;;;;;;;10.06;53.96;99929.77;1691205;84;21243;-76
2021/04/04 08:47:54;;;;;;;8.63;4.28;;;;;;;10.14;53.95;99935.20;1663326;84;21250;-78
2021/04/04 08:50:22;;;;;;;5.78;3.83;;;;;;;10.21;54.80;99932.26;1750264;79;21225;-70
2021/04/04 08:53:16;;;;;;;6.83;3.92;;;;;;;10.18;53.25;99935.48;1771222;79;21151;-70
2021/04/04 08:55:46;;;;;;;6.22;3.70;;;;;;;10.13;51.49;99933.50;1759656;80;21228;-70
2021/04/04 08:58:17;;;;;;;7.33;3.60;;;;;;;9.99;52.04;99930.08;1769183;79;21154;-71
2021/04/04 09:00:45;;;;;;;4.33;3.47;;;;;;;10.01;53.05;99929.56;1756453;79;21207;-70
2021/04/04 09:03:22;;;;;;;5.67;4.05;;;;;;;10.05;52.12;99931.14;1735586;82;21214;-71
2021/04/04 09:06:02;;;;;;;5.17;3.77;;;;;;;9.88;51.63;99933.95;1790344;76;21206;-77
2021/04/04 09:08:35;;;;;;;6.65;3.92;;;;;;;9.67;52.38;99925.55;1812236;78;22264;-77
2021/04/04 09:11:06;;;;;;;5.03;3.15;;;;;;;9.56;53.84;99936.91;1818391;78;21179;-77
2021/04/04 09:13:36;;;;;;;6.45;3.58;;;;;;;9.51;54.84;99928.33;1797131;78;21651;-75
2021/04/04 09:16:13;;;;;;;7.20;4.30;;;;;;;9.41;55.27;99926.03;1823099;78;21135;-76
2021/04/04 09:18:46;;;;;;;4.50;3.67;;;;;;;9.30;55.25;99929.49;1817625;78;21143;-76
2021/04/04 09:21:14;;;;;;;;;;;;;;;9.19;55.44;99930.31;1750299;78;21657;-76
2021/04/04 09:23:45;;;;;;;5.22;3.40;;;;;;;9.09;55.98;99931.52;1732337;82;20595;-76
2021/04/04 09:26:17;;;;;;;6.42;3.77;;;;;;;8.95;55.71;99928.93;1730621;82;21208;-78
2021/04/04 09:28:47;;;;;;;6.37;4.30;;;;;;;8.84;56.18;99927.12;1732340;80;21230;-78
2021/04/04 09:31:32;;;;;;;9.43;4.05;;;;;;;8.72;56.25;99930.13;1731573;81;21637;-78
2021/04/04 09:34:09;;;;;;;6.20;4.00;;;;;;;8.61;56.24;99930.49;1730790;82;21363;-76
2021/04/04 09:36:52;;;;;;;6.78;4.22;;;;;;;8.49;57.30;99925.18;1733742;79;21255;-69
2021/04/04 09:39:29;;;;;;;5.25;4.20;;;;;;;8.43;60.92;99926.67;1701204;83;21151;-68
2021/04/04 09:42:00;;;;;;;8.40;5.08;;;;;;;8.39;58.18;99928.49;1738919;82;21279;-70
2021/04/04 09:44:30;;;;;;;8.50;5.55;;;;;;;8.37;58.37;99924.20;1744351;82;21145;-70
2021/04/04 09:47:01;;;;;;;14.63;10.53;;;;;;;8.39;57.34;99924.55;1737685;81;22175;-69
2021/04/04 09:49:48;;;;;;;9.13;6.33;;;;;;;8.43;56.65;99926.67;1739574;77;21202;31
2021/04/04 09:55:07;;;;;;;12.25;6.40;;;;;;;8.51;55.84;99914.19;1831885;76;28722;-78
2021/04/04 09:57:54;;;;;;;9.33;5.22;;;;;;;8.45;55.83;99913.52;1799237;79;22020;-82
2021/04/04 10:00:33;;;;;;;7.17;4.45;;;;;;;8.42;56.71;99922.35;1774064;79;21186;-80
2021/04/04 10:03:18;;;;;;;6.67;4.78;;;;;;;8.44;56.96;99916.57;1775460;80;21163;-83
2021/04/04 10:05:49;;;;;;;7.55;5.28;;;;;;;8.46;57.58;99916.08;1736990;77;21207;-78
2021/04/04 10:08:25;;;;;;;8.88;5.05;;;;;;;8.59;56.50;99922.66;1699076;84;21127;-78
2021/04/04 10:10:55;;;;;;;7.95;5.12;;;;;;;8.65;55.12;99915.48;1696636;84;21067;-80
2021/04/04 10:13:26;;;;;;;6.28;4.58;;;;;;;8.69;55.52;99924.52;1692173;84;21970;-80
2021/04/04 10:15:55;;;;;;;7.12;5.25;;;;;;;8.72;56.36;99923.56;1694824;83;21190;-81
2021/04/04 10:18:25;;;;;;;4.83;4.33;;;;;;;8.81;56.94;99927.19;1688747;84;21215;-80
2021/04/04 10:20:57;;;;;;;8.85;4.30;;;;;;;8.90;55.90;99925.58;1712144;80;26727;-71
2021/04/04 10:23:32;;;;;;;7.83;4.58;;;;;;;9.07;56.56;99917.61;1725127;82;21230;-72
2021/04/04 10:26:08;;;;;;;5.53;4.33;;;;;;;9.32;56.13;99921.56;1726032;82;21206;-70
2021/04/04 10:28:51;;;;;;;11.57;5.20;;;;;;;9.54;54.14;99917.70;1702246;82;21217;-71
2021/04/04 10:31:20;;;;;;;8.08;4.70;;;;;;;9.64;52.69;99919.09;1718546;83;29014;-71
2021/04/04 10:34:00;;;;;;;8.60;4.03;;;;;;;9.70;49.86;99913.59;1697671;83;21234;-71
2021/04/04 10:36:28;;;;;;;6.72;4.25;;;;;;;9.75;49.92;99911.64;1684227;79;21193;-80
2021/04/04 10:38:57;;;;;;;6.08;4.12;;;;;;;9.93;50.50;99909.25;1704115;83;21837;-79
2021/04/04 10:41:32;;;;;;;6.75;4.30;;;;;;;10.07;49.76;99905.62;1704221;83;22211;-80
2021/04/04 10:44:00;;;;;;;5.60;3.77;;;;;;;9.97;49.60;99907.77;1710839;83;21187;-80
2021/04/04 10:46:33;;;;;;;7.53;3.47;;;;;;;10.09;50.91;99908.59;1742708;81;21187;-80
2021/04/04 10:49:04;;;;;;;5.05;3.30;;;;;;;10.29;49.12;99909.17;1742520;81;21164;-80
2021/04/04 10:51:34;;;;;;;36.55;21.68;;;;;;;10.50;49.21;99906.14;1768303;77;21979;-70
2021/04/04 10:54:03;;;;;;;7.60;4.33;;;;;;;10.65;47.67;99907.31;1788852;78;21601;-71
2021/04/04 10:56:34;;;;;;;9.25;5.00;;;;;;;10.84;47.61;99914.46;1775890;78;21158;-69
2021/04/04 10:59:05;;;;;;;4.25;3.67;;;;;;;10.99;46.96;99907.68;1769255;80;21212;-70
2021/04/04 11:01:34;;;;;;;7.45;4.28;;;;;;;11.07;44.34;99907.76;1765476;80;21146;-73
2021/04/04 11:04:04;;;;;;;8.65;4.72;;;;;;;11.24;43.20;99911.44;1765353;80;21393;-66
2021/04/04 11:06:32;;;;;;;6.10;3.80;;;;;;;11.42;44.82;99906.69;1731212;79;21188;-72
2021/04/04 11:09:01;;;;;;;7.30;4.28;;;;;;;11.62;43.52;99893.06;1744431;82;21183;-71
2021/04/04 11:11:30;;;;;;;6.58;4.30;;;;;;;11.82;42.80;99891.70;1696083;84;21199;-72
2021/04/04 11:13:59;;;;;;;5.70;4.00;;;;;;;11.93;42.62;99888.60;1742102;82;21127;-72
2021/04/04 11:16:28;;;;;;;6.08;4.45;;;;;;;12.14;41.99;99885.42;1735690;81;21369;-71
2021/04/04 11:18:57;;;;;;;9.50;4.65;;;;;;;12.38;42.82;99881.61;1744362;80;21186;-72
2021/04/04 11:21:31;;;;;;;9.00;4.40;;;;;;;12.70;41.53;99879.19;1745420;82;21163;-72
2021/04/04 11:24:00;;;;;;;23.87;12.98;;;;;;;12.95;43.10;99872.64;1707893;84;21164;-72
2021/04/04 11:26:33;;;;;;;7.80;4.58;;;;;;;13.32;42.07;99872.09;1715846;80;21149;-73
2021/04/04 11:29:17;;;;;;;6.00;3.70;;;;;;;13.82;38.78;99865.89;1745964;80;21230;-71
2021/04/04 11:31:56;;;;;;;4.22;3.35;;;;;;;14.11;36.49;99863.45;1707264;82;21207;-72
2021/04/04 11:34:43;;;;;;;5.08;3.37;;;;;;;14.08;36.13;99858.30;1742874;81;21211;-72
2021/04/04 11:37:18;;;;;;;7.90;4.80;;;;;;;14.02;36.28;99855.06;1741167;82;21169;-71
2021/04/04 11:40:14;;;;;;;;;;;;;;;14.17;35.99;99863.08;1733218;80;21146;-72
2021/04/04 11:42:43;;;;;;;3.95;2.95;;;;;;;14.09;35.60;99862.67;1743951;81;22218;-72
2021/04/04 11:45:16;;;;;;;4.35;3.52;;;;;;;13.68;34.82;99865.80;1724620;80;21217;-71
2021/04/04 11:47:44;;;;;;;7.08;3.45;;;;;;;13.20;35.93;99850.64;1697404;83;21202;-72
2021/04/04 11:50:23;;;;;;;7.62;3.95;;;;;;;13.14;36.66;99853.59;1727016;82;21253;-72
2021/04/04 11:52:51;;;;;;;4.25;3.00;;;;;;;13.37;36.46;99851.58;1712637;83;21189;-71
2021/04/04 11:55:24;;;;;;;9.48;3.40;;;;;;;13.51;35.63;99846.87;1716698;82;21426;-72
2021/04/04 11:57:54;;;;;;;7.53;3.27;;;;;;;13.46;35.83;99843.15;1679563;83;21182;-72
2021/04/04 12:00:25;;;;;;;3.75;2.72;;;;;;;13.56;35.63;99848.31;1727204;82;21206;-73
2021/04/04 12:02:59;;;;;;;4.00;2.90;;;;;;;13.68;35.14;99851.23;1730175;82;22005;-72
2021/04/04 12:05:34;;;;;;;4.47;3.30;;;;;;;13.57;35.56;99842.11;1719607;82;21215;-73
2021/04/04 12:08:03;;;;;;;6.67;3.35;;;;;;;13.44;35.85;99847.66;1732659;81;21812;-73
2021/04/04 12:10:35;;;;;;;4.50;3.42;;;;;;;13.16;38.91;99847.77;1721907;83;21238;-72
2021/04/04 12:13:03;;;;;;;5.90;3.47;;;;;;;12.98;37.65;99846.92;1725581;83;21201;-73
2021/04/04 12:15:31;;;;;;;5.47;3.67;;;;;;;12.88;40.73;99843.50;1725171;83;21197;-73
2021/04/04 12:18:00;;;;;;;8.33;3.87;;;;;;;12.76;39.77;99839.22;1726686;83;21233;-73
2021/04/04 12:20:33;;;;;;;5.00;3.90;;;;;;;12.75;40.20;99838.84;1727223;83;21199;-74